Time;durP1;ratioP1;P1;durP2;ratioP2;P2;SDS_P1;SDS_P2;PMS_P1;PMS_P2;Temp;Humidity;BMP_temperature;BMP_pressure;BME280_temperature;BME280_humidity;BME280_pressure;Samples;Min_cycle;Max_cycle;Signal;HPM_P1;HPM_P2
2022/02/24 00:02:21;;;;;;;;;11.25;11.25;;;;;13.73;55.20;101500.09;5063165;28;45252;-67
2022/02/24 00:04:47;;;;;;;;;14.00;13.75;;;;;13.77;54.83;101498.22;5072984;27;45285;-67
2022/02/24 00:07:13;;;;;;;;;13.50;11.25;;;;;13.72;55.19;101493.00;5060784;28;46096;-67
2022/02/24 00:09:38;;;;;;;;;14.25;13.75;;;;;13.70;54.82;101495.75;5070141;28;45357;-67
2022/02/24 00:12:05;;;;;;;;;15.00;13.25;;;;;13.74;55.11;101495.63;5061587;28;45328;-67
2022/02/24 00:14:31;;;;;;;;;12.25;11.25;;;;;13.70;55.28;101489.50;5061452;28;45391;-67
2022/02/24 00:16:56;;;;;;;;;12.25;11.50;;;;;13.70;55.31;101486.81;5066029;28;45543;-67
2022/02/24 00:19:22;;;;;;;;;15.50;14.25;;;;;13.67;55.31;101479.72;5081931;27;45396;-67
2022/02/24 00:21:47;;;;;;;;;16.75;13.75;;;;;13.70;55.53;101485.00;5072620;27;45427;-67
2022/02/24 00:24:13;;;;;;;;;17.00;12.50;;;;;13.72;55.45;101490.31;5070433;28;45439;-67
2022/02/24 00:26:38;;;;;;;;;16.50;16.25;;;;;13.70;55.36;101479.63;5076132;27;45509;-67
2022/02/24 00:29:04;;;;;;;;;17.75;15.25;;;;;13.69;55.49;101471.63;5083397;27;45223;-66
2022/02/24 00:31:31;;;;;;;;;18.75;17.75;;;;;13.60;55.80;101470.16;5083876;27;45488;-67
2022/02/24 00:33:58;;;;;;;;;18.00;13.25;;;;;13.62;55.63;101468.28;5067723;27;45297;-67
2022/02/24 00:36:23;;;;;;;;;13.25;13.25;;;;;13.58;55.66;101457.69;5081709;27;46269;-67
2022/02/24 00:38:48;;;;;;;;;17.50;14.75;;;;;13.59;56.04;101457.66;5078245;27;47502;-66
2022/02/24 00:41:14;;;;;;;;;17.00;14.75;;;;;13.65;55.84;101457.44;5076319;27;45531;-66
2022/02/24 00:43:39;;;;;;;;;16.00;16.00;;;;;13.60;56.12;101443.31;5061760;28;45331;-67
2022/02/24 00:46:04;;;;;;;;;19.00;15.75;;;;;13.63;55.97;101448.59;5075298;27;46167;-67
2022/02/24 00:48:30;;;;;;;;;17.00;15.75;;;;;13.63;56.19;101453.06;5067638;27;45444;-67
2022/02/24 00:50:55;;;;;;;;;12.50;12.50;;;;;13.62;56.02;101452.19;5067432;28;45644;-67
2022/02/24 00:53:20;;;;;;;;;15.00;12.25;;;;;13.59;56.32;101441.56;5058989;28;45531;-67
2022/02/24 00:55:46;;;;;;;;;17.75;17.00;;;;;13.63;56.19;101448.59;5071703;28;47325;-66
2022/02/24 00:58:11;;;;;;;;;15.00;13.75;;;;;13.62;56.18;101443.28;5067051;28;45394;-67
2022/02/24 01:00:36;;;;;;;;;15.25;14.50;;;;;13.58;56.42;101431.78;5082243;27;45512;-67
2022/02/24 01:03:02;;;;;;;;;18.75;16.50;;;;;13.58;56.37;101434.47;5074077;27;45593;-67
2022/02/24 01:05:28;;;;;;;;;17.75;16.50;;;;;13.57;56.39;101424.66;5062963;28;45349;-67
2022/02/24 01:07:53;;;;;;;;;18.25;16.25;;;;;13.60;56.31;101426.31;5071495;28;45612;-67
2022/02/24 01:10:19;;;;;;;;;14.25;12.75;;;;;13.59;56.44;101422.78;5060748;28;45450;-67
2022/02/24 01:12:44;;;;;;;;;18.50;16.50;;;;;13.58;56.42;101414.78;5061030;28;45211;-67
2022/02/24 01:15:11;;;;;;;;;18.25;14.50;;;;;13.58;56.42;101404.94;5071007;28;45502;-67
2022/02/24 01:17:37;;;;;;;;;16.00;16.00;;;;;13.52;56.24;101403.34;5064567;27;45373;-67
2022/02/24 01:20:04;;;;;;;;;19.00;16.25;;;;;13.58;56.37;101415.69;5073107;28;45468;-67
2022/02/24 01:22:30;;;;;;;;;13.50;13.50;;;;;13.56;56.50;101409.47;5061311;27;45409;-67
2022/02/24 01:24:56;;;;;;;;;17.00;17.00;;;;;13.48;56.80;101395.44;5066497;28;46536;-67
2022/02/24 01:27:21;;;;;;;;;19.50;16.50;;;;;13.53;56.54;101410.47;5078734;28;45290;-67
2022/02/24 01:29:46;;;;;;;;;16.75;16.25;;;;;13.52;56.57;101408.69;5085619;27;46031;-67
2022/02/24 01:32:12;;;;;;;;;21.25;19.25;;;;;13.51;56.78;101415.00;5073033;27;45295;-67
2022/02/24 01:34:37;;;;;;;;;17.75;16.00;;;;;13.46;56.71;101389.25;5058707;28;46257;-67
2022/02/24 01:37:03;;;;;;;;;13.50;13.50;;;;;13.48;56.76;101400.81;5068662;28;45385;-67
2022/02/24 01:39:28;;;;;;;;;20.50;20.00;;;;;13.47;56.89;101399.06;5081193;27;45384;-67
2022/02/24 01:41:55;;;;;;;;;19.50;16.00;;;;;13.43;57.10;101392.94;5065082;28;45535;-67
2022/02/24 01:44:22;;;;;;;;;18.75;18.00;;;;;13.43;57.33;101386.69;5080725;27;45276;-67
2022/02/24 01:46:47;;;;;;;;;15.00;14.75;;;;;13.46;57.51;101395.50;5079116;27;45444;-67
2022/02/24 01:49:13;;;;;;;;;15.50;15.50;;;;;13.47;58.16;101391.88;5078198;27;45350;-67
2022/02/24 01:51:39;;;;;;;;;19.50;18.25;;;;;13.48;57.83;101396.34;5062049;27;47275;-67
2022/02/24 01:54:05;;;;;;;;;15.00;15.00;;;;;13.46;58.08;101398.16;5073466;27;46173;-67
2022/02/24 01:56:31;;;;;;;;;19.25;16.25;;;;;13.50;58.21;101402.53;5070719;27;45571;-67
2022/02/24 01:58:58;;;;;;;;;18.25;17.25;;;;;13.49;58.50;101402.56;5060852;27;45456;-67
2022/02/24 02:01:23;;;;;;;;;20.75;18.50;;;;;13.45;58.73;101369.63;5087316;27;45397;-67
2022/02/24 02:03:50;;;;;;;;;16.75;13.75;;;;;13.42;58.39;101344.72;5078180;27;46300;-67
2022/02/24 02:06:16;;;;;;;;;18.00;15.25;;;;;13.39;58.74;101324.22;5064112;28;45808;-67
2022/02/24 02:08:42;;;;;;;;;14.00;10.75;;;;;13.39;58.48;101323.38;5074588;27;45493;-67
2022/02/24 02:11:08;;;;;;;;;10.75;9.00;;;;;13.41;58.56;101338.47;5064539;28;45443;-67
2022/02/24 02:13:34;;;;;;;;;10.50;9.00;;;;;13.37;59.18;101322.56;5067194;27;45372;-67
2022/02/24 02:16:00;;;;;;;;;11.00;9.00;;;;;13.39;59.08;101340.31;5059637;28;45557;-67
2022/02/24 02:18:25;;;;;;;;;10.00;9.00;;;;;13.37;59.03;101334.13;5060121;28;45357;-67
2022/02/24 02:20:54;;;;;;;;;8.25;8.25;;;;;13.36;59.12;101329.69;5059775;28;45557;-67
2022/02/24 02:23:19;;;;;;;;;9.50;8.00;;;;;13.31;59.22;101321.81;5072087;28;45360;-67
2022/02/24 02:25:46;;;;;;;;;5.50;5.25;;;;;13.31;59.44;101321.81;5069357;27;45260;-67
2022/02/24 02:28:15;;;;;;;;;6.25;5.25;;;;;13.29;59.12;101329.00;5078113;28;45382;-67
2022/02/24 02:30:41;;;;;;;;;8.75;7.75;;;;;13.30;59.14;101321.84;5077320;27;45393;-67
2022/02/24 02:33:07;;;;;;;;;5.00;4.75;;;;;13.26;59.02;101312.16;5066229;27;46329;-67
2022/02/24 02:35:32;;;;;;;;;9.00;7.25;;;;;13.32;59.21;101320.88;5068629;28;45363;-67
2022/02/24 02:37:58;;;;;;;;;5.25;4.75;;;;;13.32;58.95;101311.97;5068108;28;45369;-67
2022/02/24 02:40:25;;;;;;;;;10.50;7.25;;;;;13.32;58.57;101315.53;5076103;27;45427;-67
2022/02/24 02:42:50;;;;;;;;;8.75;6.25;;;;;13.32;58.71;101309.28;5068098;28;47345;-67
2022/02/24 02:45:16;;;;;;;;;8.50;6.75;;;;;13.29;58.91;101302.19;5067089;27;45301;-67
2022/02/24 02:47:43;;;;;;;;;8.75;7.25;;;;;13.29;58.98;101309.38;5063086;28;45426;-67
2022/02/24 02:50:09;;;;;;;;;6.25;6.25;;;;;13.28;59.29;101307.59;5066373;28;45317;-67
2022/02/24 02:52:34;;;;;;;;;7.50;7.00;;;;;13.27;59.12;101303.19;5063854;28;46518;-67
2022/02/24 02:55:05;;;;;;;;;5.00;5.00;;;;;13.28;59.13;101299.56;5066137;27;45659;-67
2022/02/24 02:57:30;;;;;;;;;6.75;6.75;;;;;13.26;58.98;101298.75;5075762;28;45353;-67
2022/02/24 02:59:56;;;;;;;;;6.00;6.00;;;;;13.22;58.98;101281.91;5074050;27;45410;-67
2022/02/24 03:02:21;;;;;;;;;9.00;9.00;;;;;13.27;58.84;101287.97;5076417;28;45922;-67
2022/02/24 03:04:50;;;;;;;;;9.00;7.25;;;;;13.19;58.84;101273.94;5066492;28;47847;-67
2022/02/24 03:07:18;;;;;;;;;10.25;6.50;;;;;13.22;59.28;101279.22;5075466;27;45744;-67
2022/02/24 03:09:44;;;;;;;;;7.50;7.00;;;;;13.20;59.02;101280.19;5073544;28;45355;-67
2022/02/24 03:12:10;;;;;;;;;8.75;7.00;;;;;13.25;58.99;101275.56;5078579;27;46166;-67
2022/02/24 03:14:38;;;;;;;;;10.75;6.50;;;;;13.22;59.02;101272.97;5079412;27;45864;-67
2022/02/24 03:17:04;;;;;;;;;9.75;8.50;;;;;13.22;59.21;101271.16;5066276;28;45352;-67
2022/02/24 03:19:29;;;;;;;;;9.00;7.00;;;;;13.23;58.98;101270.25;5062804;28;45268;-67
2022/02/24 03:21:55;;;;;;;;;9.50;7.25;;;;;13.22;58.76;101262.25;5062564;28;45354;-67
2022/02/24 03:24:21;;;;;;;;;7.25;7.25;;;;;13.25;58.48;101267.53;5065361;28;45420;-67
2022/02/24 03:26:46;;;;;;;;;7.75;7.00;;;;;13.19;58.71;101260.53;5076157;28;45396;-67
2022/02/24 03:29:12;;;;;;;;;8.75;6.50;;;;;13.24;58.54;101273.78;5072937;27;45537;-67
2022/02/24 03:31:37;;;;;;;;;8.00;6.50;;;;;13.24;58.45;101266.63;5070711;28;45363;-67
2022/02/24 03:34:02;;;;;;;;;9.00;6.75;;;;;13.22;58.41;101247.03;5080474;27;45472;-67
2022/02/24 03:36:28;;;;;;;;;9.75;8.00;;;;;13.23;58.64;101255.94;5077265;27;45367;-67
2022/02/24 03:38:53;;;;;;;;;8.00;6.00;;;;;13.22;58.55;101255.09;5081318;28;45275;-67
2022/02/24 03:41:19;;;;;;;;;6.75;6.25;;;;;13.21;58.36;101247.97;5079578;27;45160;-67
2022/02/24 03:43:44;;;;;;;;;7.25;6.75;;;;;13.17;58.44;101243.66;5060230;28;45488;-67
2022/02/24 03:46:10;;;;;;;;;8.50;6.25;;;;;13.18;58.49;101258.81;5075771;28;45356;-67
2022/02/24 03:48:35;;;;;;;;;5.00;5.00;;;;;13.14;58.62;101249.13;5078037;27;45522;-67
2022/02/24 03:51:00;;;;;;;;;9.50;7.25;;;;;13.15;58.70;101253.56;5066086;28;45487;-67
2022/02/24 03:53:26;;;;;;;;;9.00;8.00;;;;;13.11;58.93;101238.50;5076759;28;45874;-67
2022/02/24 03:55:51;;;;;;;;;12.50;9.50;;;;;13.11;58.94;101233.13;5072282;28;45674;-67
2022/02/24 03:58:17;;;;;;;;;12.00;11.25;;;;;13.03;59.40;101216.44;5066413;27;45570;-67
2022/02/24 04:00:42;;;;;;;;;14.75;10.00;;;;;13.07;59.34;101226.16;5079497;28;45385;-67
2022/02/24 04:03:07;;;;;;;;;11.00;6.75;;;;;13.06;59.12;101217.22;5074902;27;45235;-67
2022/02/24 04:05:33;;;;;;;;;7.50;6.25;;;;;13.08;58.90;101217.16;5060839;28;45307;-67
2022/02/24 04:07:58;;;;;;;;;7.25;6.00;;;;;13.06;58.91;101213.66;5090960;27;45281;-67
2022/02/24 04:10:23;;;;;;;;;9.50;8.50;;;;;13.06;59.14;101210.97;5061513;28;46041;-67
2022/02/24 04:12:49;;;;;;;;;10.25;8.00;;;;;13.08;59.21;101211.78;5061962;28;45316;-67
2022/02/24 04:15:14;;;;;;;;;12.50;9.50;;;;;13.02;59.21;101207.53;5061596;28;45343;-67
2022/02/24 04:17:39;;;;;;;;;8.75;8.00;;;;;12.96;59.12;101192.56;5067188;28;45544;-67
2022/02/24 04:20:06;;;;;;;;;9.00;9.00;;;;;13.05;59.24;101212.78;5081860;27;45445;-67
2022/02/24 04:22:31;;;;;;;;;7.00;7.00;;;;;12.99;59.05;101202.28;5077935;28;45317;-67
2022/02/24 04:24:58;;;;;;;;;8.00;5.75;;;;;13.03;58.76;101198.59;5068290;27;45573;-67
2022/02/24 04:27:24;;;;;;;;;7.00;6.25;;;;;12.98;59.03;101188.03;5081170;27;45445;-67
2022/02/24 04:29:49;;;;;;;;;9.25;8.00;;;;;13.03;58.98;101197.69;5083376;27;46167;-67
2022/02/24 04:32:15;;;;;;;;;5.75;5.75;;;;;12.96;59.07;101197.91;5090377;27;45387;-67
2022/02/24 04:34:40;;;;;;;;;5.75;5.00;;;;;12.95;58.69;101201.53;5086288;27;45393;-67
2022/02/24 04:37:05;;;;;;;;;7.50;6.50;;;;;12.95;58.60;101195.28;5071427;27;45264;-67
2022/02/24 04:39:31;;;;;;;;;9.00;6.00;;;;;12.90;58.69;101190.09;5070914;28;46166;-67
2022/02/24 04:41:56;;;;;;;;;7.00;5.50;;;;;12.95;58.66;101203.34;5072784;27;45320;-67
2022/02/24 04:44:21;;;;;;;;;7.00;5.75;;;;;12.88;58.78;101193.75;5065773;27;45255;-67
2022/02/24 04:46:47;;;;;;;;;7.50;5.75;;;;;12.90;58.53;101200.81;5061308;28;45305;-67
2022/02/24 04:49:12;;;;;;;;;5.75;5.75;;;;;12.91;58.68;101193.63;5074458;28;46587;-67
2022/02/24 04:51:37;;;;;;;;;5.25;4.75;;;;;12.91;58.80;101205.25;5067420;27;45244;-67
2022/02/24 04:54:03;;;;;;;;;6.75;6.75;;;;;12.88;58.92;101194.63;5070549;28;45289;-67
2022/02/24 04:56:28;;;;;;;;;8.50;6.00;;;;;12.87;58.63;101195.56;5064340;27;45223;-67
2022/02/24 04:58:53;;;;;;;;;7.00;5.50;;;;;12.87;58.41;101192.88;5063197;27;46260;-66
2022/02/24 05:01:19;;;;;;;;;10.00;7.00;;;;;12.86;58.53;101191.09;5074555;28;45495;-67
2022/02/24 05:03:44;;;;;;;;;9.00;6.25;;;;;12.85;58.35;101196.56;5061384;28;45390;-67
2022/02/24 05:06:10;;;;;;;;;8.25;8.00;;;;;12.80;58.07;101183.31;5065039;28;45376;-67
2022/02/24 05:08:35;;;;;;;;;4.50;3.50;;;;;12.83;57.91;101183.19;5070584;27;45439;-67
2022/02/24 05:11:00;;;;;;;;;6.00;6.00;;;;;12.83;58.14;101187.66;5073933;28;45418;-67
2022/02/24 05:13:26;;;;;;;;;4.75;4.75;;;;;12.79;57.93;101176.19;5067284;28;45312;-67
2022/02/24 05:15:51;;;;;;;;;6.00;5.25;;;;;12.82;58.02;101178.75;5077580;28;45467;-67
2022/02/24 05:18:16;;;;;;;;;2.25;1.00;;;;;12.75;57.78;101169.19;5079593;28;46847;-67
2022/02/24 05:20:42;;;;;;;;;5.00;4.00;;;;;12.74;58.00;101170.97;5069627;27;45300;-67
2022/02/24 05:23:07;;;;;;;;;6.50;5.00;;;;;12.71;57.89;101160.41;5068598;28;45328;-67
2022/02/24 05:25:36;;;;;;;;;9.75;5.00;;;;;12.70;57.65;101165.81;5066756;27;45545;-67
2022/02/24 05:28:09;;;;;;;;;5.00;5.00;;;;;12.67;57.75;101165.91;5080472;27;46230;-67
2022/02/24 05:30:36;;;;;;;;;7.25;6.00;;;;;12.70;57.59;101165.81;5067358;27;45169;-67
2022/02/24 05:33:02;;;;;;;;;5.00;4.75;;;;;12.73;57.74;101168.34;5073047;28;45315;-67
2022/02/24 05:35:27;;;;;;;;;8.25;6.00;;;;;12.67;57.63;101158.72;5060619;28;45588;-67
2022/02/24 05:37:52;;;;;;;;;6.00;5.00;;;;;12.66;57.67;101162.31;5062678;28;45151;-67
2022/02/24 05:40:19;;;;;;;;;6.00;6.00;;;;;12.66;57.67;101159.66;5068777;28;45238;-67
2022/02/24 05:42:44;;;;;;;;;4.75;4.75;;;;;12.65;57.66;101160.59;5066569;28;45373;-67
2022/02/24 05:45:10;;;;;;;;;8.75;6.00;;;;;12.63;57.82;101156.22;5069065;28;45602;-67
2022/02/24 05:47:35;;;;;;;;;6.00;5.00;;;;;12.65;57.51;101165.09;5068123;27;46934;-67
2022/02/24 05:50:02;;;;;;;;;7.00;5.00;;;;;12.64;57.48;101171.38;5061784;28;45551;-67
2022/02/24 05:52:28;;;;;;;;;7.75;5.00;;;;;12.67;57.47;101165.91;5059291;28;45388;-67
2022/02/24 05:54:53;;;;;;;;;7.00;6.00;;;;;12.59;57.04;101160.81;5068533;27;45606;-67
2022/02/24 05:57:19;;;;;;;;;5.75;5.75;;;;;12.60;57.27;101171.47;5060116;28;46031;-67
2022/02/24 05:59:44;;;;;;;;;7.00;4.50;;;;;12.58;56.91;101162.59;5077667;27;45288;-67
2022/02/24 06:02:10;;;;;;;;;3.75;3.50;;;;;12.59;56.85;101166.16;5073630;28;45501;-67
2022/02/24 06:04:35;;;;;;;;;5.25;5.00;;;;;12.55;56.80;101151.13;5071706;28;45308;-67
2022/02/24 06:07:01;;;;;;;;;9.00;4.75;;;;;12.60;56.81;101154.53;5064875;27;46537;-67
2022/02/24 06:09:26;;;;;;;;;5.75;3.75;;;;;12.59;56.42;101148.28;5066663;27;45267;-67
2022/02/24 06:11:52;;;;;;;;;3.50;2.75;;;;;12.58;56.39;101143.00;5070048;27;45235;-67
2022/02/24 06:14:18;;;;;;;;;4.25;4.00;;;;;12.63;56.15;101153.53;5059223;28;45462;-67
2022/02/24 06:16:44;;;;;;;;;2.25;0.75;;;;;12.58;56.04;101145.69;5071410;28;45536;-67
2022/02/24 06:19:09;;;;;;;;;4.25;4.25;;;;;12.61;55.85;101142.88;5068853;27;45466;-67
2022/02/24 06:21:35;;;;;;;;;3.00;3.00;;;;;12.59;55.73;101139.38;5060126;28;45421;-67
2022/02/24 06:24:00;;;;;;;;;3.00;3.00;;;;;12.55;55.64;101135.06;5061624;28;45495;-67
2022/02/24 06:26:25;;;;;;;;;3.75;2.75;;;;;12.57;55.63;101144.78;5063346;27;45446;-67
2022/02/24 06:28:51;;;;;;;;;6.00;5.00;;;;;12.53;55.56;101135.13;5068593;27;45464;-67
2022/02/24 06:31:17;;;;;;;;;4.00;3.25;;;;;12.56;55.22;101139.47;5063499;28;45498;-67
2022/02/24 06:33:42;;;;;;;;;4.00;3.00;;;;;12.54;55.42;101136.84;5066291;27;45528;-67
2022/02/24 06:36:07;;;;;;;;;5.50;3.50;;;;;12.47;55.26;101124.59;5068435;28;45977;-67
2022/02/24 06:38:33;;;;;;;;;3.25;2.00;;;;;12.45;55.19;101131.81;5059425;28;46626;-67
2022/02/24 06:40:58;;;;;;;;;3.75;3.75;;;;;12.44;55.30;101127.38;5074728;28;45313;-67
2022/02/24 06:43:23;;;;;;;;;3.75;3.25;;;;;12.42;55.23;101137.28;5079829;27;45303;-67
2022/02/24 06:45:49;;;;;;;;;4.50;3.50;;;;;12.30;55.58;101130.53;5073566;28;46176;-67
2022/02/24 06:48:16;;;;;;;;;6.75;4.25;;;;;12.31;55.51;101139.44;5064560;28;45349;-67
2022/02/24 06:50:42;;;;;;;;;7.00;4.25;;;;;12.35;55.45;101149.13;5070700;27;46499;-67
2022/02/24 06:53:07;;;;;;;;;6.25;5.00;;;;;12.36;55.37;101142.81;5060113;28;45276;-67
2022/02/24 06:55:33;;;;;;;;;8.00;4.00;;;;;12.34;55.46;101148.22;5069330;28;46163;-66
2022/02/24 06:57:58;;;;;;;;;2.25;1.75;;;;;12.31;55.61;101155.50;5059455;27;45228;-71
2022/02/24 07:00:24;;;;;;;;;6.25;6.00;;;;;12.28;55.62;101148.44;5060138;28;46018;-71
2022/02/24 07:02:51;;;;;;;;;4.75;4.75;;;;;12.30;55.53;101143.06;5064841;28;45582;-71
2022/02/24 07:05:16;;;;;;;;;7.50;4.00;;;;;12.25;55.60;101150.38;5075889;27;46058;-71
2022/02/24 07:07:42;;;;;;;;;6.00;4.00;;;;;12.23;55.64;101137.88;5070487;27;45539;-71
2022/02/24 07:10:11;;;;;;;;;6.00;5.25;;;;;12.20;55.85;101140.66;5067584;27;45825;-71
2022/02/24 07:12:41;;;;;;;;;5.25;5.00;;;;;12.19;55.91;101143.38;5065264;27;45511;-71
2022/02/24 07:15:07;;;;;;;;;5.00;4.00;;;;;12.20;55.75;101140.66;5065186;27;47501;-71
2022/02/24 07:17:33;;;;;;;;;5.00;4.00;;;;;12.21;55.73;101144.22;5068160;28;45498;-71
2022/02/24 07:19:58;;;;;;;;;4.00;4.00;;;;;12.23;55.52;101145.91;5069834;28;45433;-71
2022/02/24 07:22:25;;;;;;;;;4.50;3.00;;;;;12.23;55.38;101145.91;5065501;28;45412;-70
2022/02/24 07:24:50;;;;;;;;;6.00;4.00;;;;;12.16;55.83;101141.72;5074653;27;46371;-71
2022/02/24 07:27:16;;;;;;;;;3.50;2.50;;;;;12.13;55.38;101147.16;5072040;27;45507;-71
2022/02/24 07:29:41;;;;;;;;;3.00;3.00;;;;;12.21;55.46;101161.16;5062369;28;45400;-71
2022/02/24 07:32:07;;;;;;;;;3.50;3.50;;;;;12.19;55.20;101162.13;5074097;28;45495;-72
2022/02/24 07:34:32;;;;;;;;;5.75;2.00;;;;;12.14;55.38;101164.94;5081455;28;45274;-71
2022/02/24 07:36:58;;;;;;;;;5.00;2.75;;;;;12.15;54.99;101155.13;5074962;27;45262;-72
2022/02/24 07:39:23;;;;;;;;;4.50;3.00;;;;;12.16;55.01;101146.16;5075538;27;45393;-71
2022/02/24 07:41:49;;;;;;;;;8.00;3.00;;;;;12.13;54.88;101144.47;5071082;27;45236;-71
2022/02/24 07:44:14;;;;;;;;;2.75;2.75;;;;;12.13;54.89;101154.28;5066788;28;45731;-71
2022/02/24 07:46:41;;;;;;;;;5.75;3.00;;;;;12.15;54.61;101147.97;5077915;28;45263;-71
2022/02/24 07:49:06;;;;;;;;;4.25;3.50;;;;;12.16;54.75;101154.19;5068323;27;45447;-71
2022/02/24 07:51:32;;;;;;;;;3.50;2.00;;;;;12.19;54.72;101151.41;5073230;28;45449;-71
2022/02/24 07:53:57;;;;;;;;;2.25;2.25;;;;;12.19;54.77;101143.38;5061905;28;46093;-71
2022/02/24 07:56:23;;;;;;;;;3.50;3.00;;;;;12.14;54.53;101145.34;5066320;28;45446;-71
2022/02/24 07:58:48;;;;;;;;;6.25;4.00;;;;;12.17;54.39;101151.47;5074937;28;45340;-71
2022/02/24 08:01:13;;;;;;;;;4.75;2.25;;;;;12.12;54.66;101141.84;5072101;27;45417;-71
2022/02/24 08:03:39;;;;;;;;;5.75;3.50;;;;;12.12;54.69;101137.34;5070024;27;45897;-71
2022/02/24 08:06:04;;;;;;;;;2.75;2.50;;;;;12.15;54.44;101147.09;5073869;27;45372;-72
2022/02/24 08:08:29;;;;;;;;;4.50;3.25;;;;;12.12;54.27;101145.38;5062464;27;45355;-72
2022/02/24 08:10:55;;;;;;;;;3.75;2.25;;;;;12.16;54.42;101146.16;5066073;27;45948;-73
2022/02/24 08:13:21;;;;;;;;;3.50;2.75;;;;;12.10;54.36;101136.53;5076826;27;47236;-74
2022/02/24 08:15:46;;;;;;;;;2.75;2.00;;;;;12.08;54.08;101116.09;5077396;27;45453;-74
2022/02/24 08:18:11;;;;;;;;;3.75;2.50;;;;;12.10;54.26;101123.16;5076104;27;45396;-74
2022/02/24 08:20:37;;;;;;;;;4.00;2.00;;;;;12.14;54.33;101119.44;5065025;27;45297;-67
2022/02/24 08:23:04;;;;;;;;;2.00;2.00;;;;;12.13;54.13;101112.38;5072725;27;47220;-67
2022/02/24 08:25:31;;;;;;;;;4.25;3.50;;;;;12.18;53.92;101128.28;5063092;27;45701;-67
2022/02/24 08:27:57;;;;;;;;;2.00;2.00;;;;;12.15;54.17;101115.84;5073712;27;45556;-67
2022/02/24 08:30:23;;;;;;;;;3.00;2.50;;;;;12.11;54.05;101107.97;5076707;28;45661;-67
2022/02/24 08:32:50;;;;;;;;;5.00;3.75;;;;;12.13;53.82;101120.38;5066985;28;46049;-67
2022/02/24 08:35:16;;;;;;;;;2.25;2.00;;;;;12.14;53.77;101111.41;5066013;27;45725;-67
2022/02/24 08:37:49;;;;;;;;;3.00;2.00;;;;;12.17;53.52;101116.69;5066009;28;46587;-67
2022/02/24 08:40:20;;;;;;;;;3.00;2.25;;;;;12.21;53.50;101129.03;5072555;28;45712;-67
2022/02/24 08:42:46;;;;;;;;;3.00;1.00;;;;;12.19;53.55;101117.50;5069732;28;47137;-67
2022/02/24 08:45:11;;;;;;;;;5.00;3.00;;;;;12.12;53.45;101107.94;5061684;28;45628;-67
2022/02/24 08:47:38;;;;;;;;;2.00;2.00;;;;;12.15;53.43;101117.66;5068803;27;45418;-67
2022/02/24 08:50:05;;;;;;;;;2.00;2.00;;;;;12.13;53.60;101125.75;5066601;28;45389;-67
2022/02/24 08:52:30;;;;;;;;;1.50;1.50;;;;;12.07;53.69;101103.66;5066766;27;46350;-67
2022/02/24 08:54:56;;;;;;;;;4.25;3.00;;;;;12.04;53.42;101091.25;5073183;28;45411;-67
2022/02/24 08:57:21;;;;;;;;;3.50;1.00;;;;;12.07;53.65;101101.84;5074892;27;45585;-67
2022/02/24 08:59:47;;;;;;;;;4.00;3.00;;;;;12.09;53.60;101105.34;5061820;28;45460;-67
2022/02/24 09:02:12;;;;;;;;;3.50;2.00;;;;;12.13;53.60;101108.78;5067470;27;45664;-67
2022/02/24 09:04:38;;;;;;;;;1.75;1.75;;;;;12.12;53.79;101115.09;5072012;27;45398;-67
2022/02/24 09:07:03;;;;;;;;;3.75;2.75;;;;;12.16;53.66;101112.28;5072563;28;45395;-67
2022/02/24 09:09:29;;;;;;;;;4.00;2.50;;;;;12.19;53.60;101122.84;5066442;28;45321;-67
2022/02/24 09:11:54;;;;;;;;;2.25;1.75;;;;;12.19;53.29;101133.56;5066044;27;45522;-67
2022/02/24 09:14:19;;;;;;;;;3.00;2.00;;;;;12.15;53.72;101109.63;5068772;28;45506;-67
2022/02/24 09:16:45;;;;;;;;;3.00;1.25;;;;;12.13;53.55;101109.69;5059271;28;45406;-67
2022/02/24 09:19:11;;;;;;;;;3.00;3.00;;;;;12.17;53.53;101126.50;5071162;28;45369;-67
2022/02/24 09:21:38;;;;;;;;;1.25;1.25;;;;;12.19;53.71;101128.19;5071729;28;46427;-67
2022/02/24 09:24:04;;;;;;;;;3.00;1.00;;;;;12.23;53.54;101137.88;5069990;28;45781;-67
2022/02/24 09:26:29;;;;;;;;;1.00;1.00;;;;;12.21;53.79;101128.16;5075786;27;45603;-67
2022/02/24 09:28:54;;;;;;;;;3.25;1.00;;;;;12.19;53.81;101113.94;5076756;27;45476;-67
2022/02/24 09:31:20;;;;;;;;;3.50;2.50;;;;;12.21;54.06;101122.78;5071132;27;45299;-66
2022/02/24 09:33:46;;;;;;;;;1.75;1.75;;;;;12.21;54.00;101126.38;5059860;28;45977;-66
2022/02/24 09:36:12;;;;;;;;;2.00;1.00;;;;;12.19;54.09;101130.00;5058596;28;45605;-67
2022/02/24 09:38:37;;;;;;;;;2.00;1.00;;;;;12.18;54.38;101134.50;5069942;28;45451;-67
2022/02/24 09:41:04;;;;;;;;;3.00;1.00;;;;;12.15;54.57;101142.63;5070674;28;45952;-67
2022/02/24 09:43:34;;;;;;;;;2.75;1.00;;;;;12.14;54.88;101121.25;5076961;27;45469;-68
2022/02/24 09:46:05;;;;;;;;;3.00;2.00;;;;;12.10;54.75;101104.44;5077067;28;45353;-66
2022/02/24 09:48:33;;;;;;;;;1.00;0.00;;;;;12.09;54.66;101105.34;5021064;27;46990;-70
2022/02/24 09:51:00;;;;;;;;;1.00;1.00;;;;;12.11;54.17;101106.19;4936138;28;45701;-70
2022/02/24 09:53:27;;;;;;;;;2.00;2.00;;;;;12.13;54.58;101101.66;4925897;28;45628;-67
2022/02/24 09:55:53;;;;;;;;;1.00;1.00;;;;;12.09;54.47;101088.44;4946260;28;45508;-71
2022/02/24 09:58:19;;;;;;;;;1.00;1.00;;;;;12.16;54.44;101092.63;4932982;28;45385;-69
2022/02/24 10:00:45;;;;;;;;;0.00;0.00;;;;;12.17;54.47;101086.38;4934535;28;47213;-69
2022/02/24 10:03:31;;;;;;;;;2.75;1.75;;;;;12.23;54.23;101084.38;4930214;28;45302;-69
2022/02/24 10:05:57;;;;;;;;;4.75;1.75;;;;;12.19;54.51;101082.69;4934454;28;45424;-69
2022/02/24 10:08:30;;;;;;;;;3.75;1.75;;;;;12.28;54.35;101102.06;4928588;28;45615;-69
2022/02/24 10:10:58;;;;;;;;;4.75;2.25;;;;;12.20;54.65;101075.56;4938251;28;46441;-69
2022/02/24 10:13:24;;;;;;;;;3.00;1.00;;;;;12.22;54.00;101063.00;4929058;28;45546;-69
2022/02/24 10:16:01;;;;;;;;;2.25;1.25;;;;;12.29;54.10;101093.97;4939268;28;45479;-69
2022/02/24 10:18:29;;;;;;;;;3.00;1.00;;;;;12.29;54.32;101083.25;4926454;28;45594;-69
2022/02/24 10:21:00;;;;;;;;;2.00;2.00;;;;;12.34;54.01;101069.72;4937922;28;46152;-69
2022/02/24 10:23:40;;;;;;;;;2.00;2.00;;;;;12.38;53.87;101077.63;4932204;28;45349;-69
2022/02/24 10:26:11;;;;;;;;;2.50;2.25;;;;;12.41;54.10;101074.84;4930798;28;45541;-69
2022/02/24 10:28:49;;;;;;;;;2.25;1.00;;;;;12.45;53.95;101097.00;4932336;28;45403;-69
2022/02/24 10:31:26;;;;;;;;;3.00;1.50;;;;;12.48;53.83;101074.59;4939478;28;47091;-69
2022/02/24 10:34:07;;;;;;;;;2.00;2.00;;;;;12.48;54.08;101072.81;4927517;28;45433;-69
2022/02/24 10:36:34;;;;;;;;;1.00;1.00;;;;;12.53;54.08;101092.28;4945116;28;45179;-69
2022/02/24 10:39:00;;;;;;;;;2.75;1.75;;;;;12.58;53.94;101089.44;4931339;28;45762;-69
2022/02/24 10:41:30;;;;;;;;;1.75;1.00;;;;;12.62;54.01;101090.19;4933876;28;45427;-69
2022/02/24 10:44:21;;;;;;;;;3.25;2.00;;;;;12.64;53.61;101088.34;4930579;28;45278;-69
2022/02/24 10:46:53;;;;;;;;;3.25;2.75;;;;;12.57;54.10;101076.97;4929662;28;45492;-69
2022/02/24 10:49:49;;;;;;;;;3.00;0.25;;;;;12.69;53.95;101100.63;4938259;28;45560;-69
2022/02/24 10:52:16;;;;;;;;;1.75;1.75;;;;;12.70;54.01;101099.72;4932131;28;45465;-69
2022/02/24 10:54:54;;;;;;;;;1.25;1.25;;;;;12.63;53.87;101078.53;4935717;28;45577;-69
2022/02/24 10:57:21;;;;;;;;;1.00;1.00;;;;;12.71;53.89;101097.91;4936112;28;45668;-70
2022/02/24 10:59:48;;;;;;;;;2.50;2.50;;;;;12.66;54.16;101075.75;4927126;28;45504;-69
2022/02/24 11:02:14;;;;;;;;;1.25;1.00;;;;;12.72;54.17;101084.44;4938228;28;46050;-69
2022/02/24 11:04:40;;;;;;;;;1.00;1.00;;;;;12.73;54.11;101088.00;4938414;28;45394;-69
2022/02/24 11:07:07;;;;;;;;;1.00;1.00;;;;;12.76;53.92;101079.84;4939672;28;45449;-69
2022/02/24 11:09:35;;;;;;;;;4.00;1.75;;;;;12.82;54.29;101068.06;4940726;28;45370;-69
2022/02/24 11:12:03;;;;;;;;;4.00;1.25;;;;;12.80;54.29;101068.09;4942856;28;45515;-69
2022/02/24 11:14:30;;;;;;;;;3.00;1.50;;;;;12.81;54.09;101072.53;4947209;28;45467;-69
2022/02/24 11:16:56;;;;;;;;;3.75;2.00;;;;;12.80;53.77;101035.97;4934804;28;45467;-69
2022/02/24 11:19:21;;;;;;;;;2.75;2.25;;;;;12.90;54.15;101034.69;4939412;28;45841;-69